Kalamakion, Greece
Current Conditions -  °F | °C
As of 3:20 AM on Saturday 25 Oct 2014 (Local Time) from LGAV Reporting Station
Scattered Clouds Scattered Clouds  
Wind Chill: 55°   Ceiling: Unl
Heat Index: 55°   Visibility: 6mi
Dew Point: 45°   Wind: 5mph
Humidity: 67%   Direction: 260°W
Pressure: 29.71"   Gusts: NA
Location:  37.92°N, 23.72°E
Report Text: LGAV 250020Z 26004KT 9999 SCT030 13/07 Q1006 NOSIG
Loading
Personal Weather Stations






























Interactive Weather Map
Tropical Storm Tracking
New forecast layout! Learn more

10-Day Weather Forecast

Advertisements
Track Severe Weather on mobile